createdAt,value
2022-11-06T00:01:15.824Z,-0.90
2022-11-06T00:03:44.979Z,-0.90
2022-11-06T00:06:35.109Z,-1.20
2022-11-06T00:09:13.983Z,-0.91
2022-11-06T00:11:42.306Z,-1.18
2022-11-06T00:14:13.476Z,-0.92
2022-11-06T00:16:41.692Z,-0.97
2022-11-06T00:19:09.447Z,-1.19
2022-11-06T00:21:37.368Z,-0.94
2022-11-06T00:24:06.497Z,-1.13
2022-11-06T00:26:34.820Z,-1.03
2022-11-06T00:29:03.250Z,-1.02
2022-11-06T00:31:32.255Z,-1.11
2022-11-06T00:34:00.733Z,-1.11
2022-11-06T00:36:30.783Z,-1.22
2022-11-06T00:38:58.819Z,-1.19
2022-11-06T00:41:26.962Z,-1.23
2022-11-06T00:43:57.196Z,-1.18
2022-11-06T00:46:24.879Z,-1.31
2022-11-06T00:48:52.758Z,-1.22
2022-11-06T00:51:22.174Z,-1.10
2022-11-06T00:53:53.946Z,-1.07
2022-11-06T00:56:22.177Z,-1.02
2022-11-06T00:58:49.856Z,-1.10
2022-11-06T01:01:18.846Z,-1.15
2022-11-06T01:03:48.273Z,-1.04
2022-11-06T01:06:20.293Z,-0.99
2022-11-06T01:08:48.536Z,-0.95
2022-11-06T01:11:21.198Z,-0.96
2022-11-06T01:13:50.378Z,-1.04
2022-11-06T01:16:18.118Z,-0.98
2022-11-06T01:18:46.205Z,-0.97
2022-11-06T01:21:15.497Z,-0.97
2022-11-06T01:23:43.310Z,-0.98
2022-11-06T01:26:11.782Z,-0.94
2022-11-06T01:28:40.403Z,-1.22
2022-11-06T01:31:12.765Z,-1.14
2022-11-06T01:33:40.792Z,-1.03
2022-11-06T01:36:12.329Z,-1.16
2022-11-06T01:38:44.596Z,-1.24
2022-11-06T01:41:13.478Z,-1.35
2022-11-06T01:43:50.479Z,-0.92
2022-11-06T01:46:19.066Z,-1.14
2022-11-06T01:48:52.367Z,-1.22
2022-11-06T01:51:21.382Z,-1.37
2022-11-06T01:53:49.389Z,-1.60
2022-11-06T01:56:18.142Z,-1.40
2022-11-06T01:58:47.091Z,-1.54
2022-11-06T02:01:15.105Z,-1.52
2022-11-06T02:03:50.869Z,-1.42
2022-11-06T02:06:18.459Z,-1.54
2022-11-06T02:08:46.448Z,-1.50
2022-11-06T02:11:14.180Z,-1.71
2022-11-06T02:14:02.779Z,-1.64
2022-11-06T02:16:40.229Z,-1.68
2022-11-06T02:19:19.932Z,-1.51
2022-11-06T02:22:01.661Z,-1.26
2022-11-06T02:24:47.625Z,-1.44
2022-11-06T02:27:18.618Z,-1.36
2022-11-06T02:29:49.861Z,-1.36
2022-11-06T02:32:23.643Z,-1.60
2022-11-06T02:34:54.086Z,-1.53
2022-11-06T02:37:25.449Z,-1.34
2022-11-06T02:39:53.466Z,-1.44
2022-11-06T02:42:21.489Z,-1.43
2022-11-06T02:44:50.793Z,-1.56
2022-11-06T02:47:20.521Z,-1.59
2022-11-06T02:49:59.651Z,-1.43
2022-11-06T02:52:30.973Z,-1.46
2022-11-06T02:55:04.051Z,-1.67
2022-11-06T02:57:35.895Z,-1.56
2022-11-06T03:00:08.195Z,-1.63
2022-11-06T03:02:56.421Z,-1.69
2022-11-06T03:05:27.188Z,-1.67
2022-11-06T03:07:55.137Z,-1.58
2022-11-06T03:10:28.221Z,-1.50
2022-11-06T03:13:01.728Z,-1.66
2022-11-06T03:15:35.080Z,-1.55
2022-11-06T03:18:15.761Z,-1.58
2022-11-06T03:20:48.726Z,-1.37
2022-11-06T03:23:19.346Z,-1.34
2022-11-06T03:25:48.013Z,-1.24
2022-11-06T03:28:23.116Z,-1.15
2022-11-06T03:30:52.836Z,-1.36
2022-11-06T03:33:35.811Z,-1.37
2022-11-06T03:36:10.941Z,-1.60
2022-11-06T03:38:42.594Z,-1.46
2022-11-06T03:41:29.007Z,-1.51
2022-11-06T03:43:58.941Z,-1.38
2022-11-06T03:46:27.177Z,-1.30
2022-11-06T03:49:01.112Z,-1.40
2022-11-06T03:51:49.195Z,-1.50
2022-11-06T03:54:42.969Z,-1.40
2022-11-06T03:57:16.391Z,-1.47
2022-11-06T03:59:47.661Z,-1.74
2022-11-06T04:02:17.324Z,-1.49
2022-11-06T04:04:45.261Z,-1.38
2022-11-06T04:07:14.835Z,-1.38
2022-11-06T04:10:03.792Z,-1.18
2022-11-06T04:12:51.144Z,-1.12
2022-11-06T04:15:19.888Z,-1.13
2022-11-06T04:17:47.888Z,-1.30
2022-11-06T04:20:38.946Z,-1.17
2022-11-06T04:23:06.950Z,-1.50
2022-11-06T04:25:59.811Z,-1.34
2022-11-06T04:28:41.894Z,-1.23
2022-11-06T04:31:20.765Z,-1.16
2022-11-06T04:33:54.711Z,-1.22
2022-11-06T04:36:37.967Z,-1.15
2022-11-06T04:39:29.246Z,-1.21
2022-11-06T04:42:11.205Z,-1.09
2022-11-06T04:47:27.092Z,-1.23
2022-11-06T04:49:57.351Z,-1.17
2022-11-06T04:52:26.792Z,-1.23
2022-11-06T04:54:55.166Z,-1.22
2022-11-06T04:57:23.636Z,-1.19
2022-11-06T04:59:51.151Z,-1.17
2022-11-06T05:02:18.730Z,-0.90
2022-11-06T05:04:46.880Z,-1.09
2022-11-06T05:07:14.974Z,-1.14
2022-11-06T05:09:43.074Z,-0.76
2022-11-06T05:12:11.021Z,-0.95
2022-11-06T05:14:38.569Z,-1.06
2022-11-06T05:17:06.092Z,-1.07
2022-11-06T05:19:33.974Z,-1.04
2022-11-06T05:22:19.932Z,-0.91
2022-11-06T05:24:47.823Z,-1.07
2022-11-06T05:27:15.392Z,-1.09
2022-11-06T05:29:42.922Z,-1.09
2022-11-06T05:32:10.745Z,-1.15
2022-11-06T05:34:38.393Z,-1.50
2022-11-06T05:37:05.997Z,-1.65
2022-11-06T05:39:36.619Z,-1.23
2022-11-06T05:42:08.110Z,-1.39
2022-11-06T05:44:36.284Z,-1.22
2022-11-06T05:47:03.805Z,-1.18
2022-11-06T05:49:31.355Z,-1.22
2022-11-06T05:51:59.299Z,-1.14
2022-11-06T05:57:31.146Z,-1.28
2022-11-06T05:59:58.605Z,-1.08
2022-11-06T06:02:26.543Z,-1.21
2022-11-06T06:04:54.495Z,-1.19
2022-11-06T06:07:22.722Z,-1.03
2022-11-06T06:09:50.239Z,-1.16
2022-11-06T06:12:18.245Z,-1.28
2022-11-06T06:14:50.262Z,-1.47
2022-11-06T06:17:18.615Z,-1.23
2022-11-06T06:19:46.197Z,-1.25
2022-11-06T06:22:13.780Z,-1.24
2022-11-06T06:24:41.834Z,-0.29
2022-11-06T06:27:09.432Z,-0.79
2022-11-06T06:29:37.839Z,-0.79
2022-11-06T06:32:06.177Z,-0.82
2022-11-06T06:37:20.202Z,-0.93
2022-11-06T06:39:47.965Z,-0.80
2022-11-06T06:45:01.275Z,-0.93
2022-11-06T06:47:29.545Z,-1.21
2022-11-06T06:49:59.483Z,-1.05
2022-11-06T06:52:29.042Z,-1.00
2022-11-06T06:57:42.808Z,-0.92
2022-11-06T07:00:10.713Z,-1.03
2022-11-06T07:02:40.899Z,-0.97
2022-11-06T07:07:54.650Z,-1.15
2022-11-06T07:10:23.246Z,-1.03
2022-11-06T07:12:50.865Z,-0.81
2022-11-06T07:15:18.420Z,-0.43
2022-11-06T07:17:46.296Z,0.10
2022-11-06T07:20:13.873Z,-0.36
2022-11-06T07:25:26.804Z,-0.28
2022-11-06T07:27:56.048Z,0.10
2022-11-06T07:30:29.857Z,-0.16
2022-11-06T07:32:58.273Z,-0.28
2022-11-06T07:35:25.840Z,-0.40
2022-11-06T07:37:53.719Z,-0.42
2022-11-06T07:40:21.153Z,-0.37
2022-11-06T07:42:48.740Z,-0.39
2022-11-06T07:45:16.924Z,-0.39
2022-11-06T07:53:16.140Z,-0.44
2022-11-06T07:55:53.819Z,-0.42
2022-11-06T07:58:21.971Z,0.16
2022-11-06T08:00:51.149Z,0.12
2022-11-06T08:03:19.905Z,-0.42
2022-11-06T08:05:47.796Z,-0.46
2022-11-06T08:08:15.671Z,-0.42
2022-11-06T08:10:48.038Z,-0.33
2022-11-06T08:13:16.964Z,-0.29
2022-11-06T08:15:44.874Z,0.22
2022-11-06T08:18:13.055Z,0.13
2022-11-06T08:20:41.338Z,0.56
2022-11-06T08:23:11.543Z,0.29
2022-11-06T08:25:39.311Z,0.38
2022-11-06T08:28:06.782Z,0.59
2022-11-06T08:30:34.735Z,0.24
2022-11-06T08:33:04.272Z,0.01
2022-11-06T08:35:31.996Z,-0.19
2022-11-06T08:37:59.937Z,-0.06
2022-11-06T08:40:30.860Z,-0.08
2022-11-06T08:42:59.846Z,-0.12
2022-11-06T08:45:28.261Z,0.25
2022-11-06T08:47:55.867Z,-0.10
2022-11-06T08:50:23.484Z,-0.16
2022-11-06T08:52:51.274Z,-0.15
2022-11-06T08:55:18.764Z,0.28
2022-11-06T08:57:46.414Z,-0.01
2022-11-06T09:00:14.709Z,0.00
2022-11-06T09:02:42.490Z,-0.22
2022-11-06T09:05:10.626Z,-0.13
2022-11-06T09:07:38.532Z,-0.30
2022-11-06T09:10:06.323Z,-0.36
2022-11-06T09:12:34.017Z,-0.23
2022-11-06T09:15:01.863Z,0.06
2022-11-06T09:17:29.711Z,0.30
2022-11-06T09:19:57.242Z,0.54
2022-11-06T09:22:25.382Z,0.15
2022-11-06T09:25:07.976Z,0.03
2022-11-06T09:27:46.264Z,-0.15
2022-11-06T09:30:15.090Z,-0.22
2022-11-06T09:32:47.109Z,0.08
2022-11-06T09:35:15.073Z,0.58
2022-11-06T09:37:43.205Z,0.12
2022-11-06T09:40:31.321Z,0.04
2022-11-06T09:43:04.807Z,-0.05
2022-11-06T09:45:34.235Z,0.01
2022-11-06T09:48:12.116Z,-0.12
2022-11-06T09:50:44.474Z,-0.02
2022-11-06T09:53:31.084Z,0.09
2022-11-06T09:56:02.145Z,0.08
2022-11-06T09:58:42.441Z,0.48
2022-11-06T10:01:26.870Z,0.85
2022-11-06T10:03:57.762Z,0.14
2022-11-06T10:06:26.590Z,0.06
2022-11-06T10:08:57.197Z,0.53
2022-11-06T10:11:41.030Z,0.25
2022-11-06T10:14:27.446Z,0.02
2022-11-06T10:17:00.631Z,0.35
2022-11-06T10:19:46.839Z,0.10
2022-11-06T10:22:18.972Z,0.04
2022-11-06T10:24:46.619Z,0.11
2022-11-06T10:27:18.807Z,0.16
2022-11-06T10:30:05.479Z,-0.03
2022-11-06T10:32:51.625Z,-0.14
2022-11-06T10:35:24.507Z,0.08
2022-11-06T10:38:01.583Z,-0.01
2022-11-06T10:40:31.955Z,-0.15
2022-11-06T10:43:26.266Z,0.59
2022-11-06T10:46:13.340Z,0.26
2022-11-06T10:48:47.317Z,0.29
2022-11-06T10:51:24.486Z,0.71
2022-11-06T10:53:52.149Z,0.14
2022-11-06T10:56:47.956Z,0.58
2022-11-06T10:59:16.797Z,0.59
2022-11-06T11:01:44.839Z,0.75
2022-11-06T11:04:12.561Z,1.11
2022-11-06T11:06:42.735Z,0.41
2022-11-06T11:09:45.716Z,0.28
2022-11-06T11:12:33.926Z,0.02
2022-11-06T11:15:13.547Z,-0.23
2022-11-06T11:17:42.320Z,0.75
2022-11-06T11:20:30.053Z,0.37
2022-11-06T11:23:05.570Z,-0.09
2022-11-06T11:25:34.218Z,-0.29
2022-11-06T11:28:04.925Z,-0.29
2022-11-06T11:30:33.359Z,-0.38
2022-11-06T11:33:01.174Z,-0.11
2022-11-06T11:35:30.967Z,0.25
2022-11-06T11:38:12.364Z,-0.24
2022-11-06T11:40:40.288Z,-0.17
2022-11-06T11:43:20.158Z,-0.20
2022-11-06T11:46:07.971Z,0.51
2022-11-06T11:48:41.694Z,-0.02
2022-11-06T11:51:28.565Z,-0.06
2022-11-06T11:53:58.767Z,-0.14
2022-11-06T11:56:57.806Z,-0.05
2022-11-06T11:59:20.182Z,0.07
2022-11-06T12:01:48.570Z,0.35
2022-11-06T12:04:23.950Z,0.36
2022-11-06T12:06:59.511Z,0.22
2022-11-06T12:09:28.730Z,0.37
2022-11-06T12:11:57.811Z,0.76
2022-11-06T12:14:27.613Z,0.27
2022-11-06T12:16:58.173Z,0.67
2022-11-06T12:19:28.057Z,0.17
2022-11-06T12:22:01.428Z,0.12
2022-11-06T12:24:49.746Z,-0.14
2022-11-06T12:27:28.131Z,-0.24
2022-11-06T12:30:07.032Z,-0.15
2022-11-06T12:32:34.948Z,-0.36
2022-11-06T12:35:14.965Z,0.26
2022-11-06T12:37:58.295Z,0.46
2022-11-06T12:40:30.371Z,-0.23
2022-11-06T12:43:10.632Z,0.72
2022-11-06T12:45:44.846Z,-0.29
2022-11-06T12:48:31.799Z,0.32
2022-11-06T12:51:06.714Z,0.15
2022-11-06T12:53:54.224Z,0.06
2022-11-06T12:56:36.838Z,0.30
2022-11-06T12:59:11.187Z,-0.28
2022-11-06T13:01:44.250Z,-0.68
2022-11-06T13:04:50.990Z,-0.80
2022-11-06T13:07:24.509Z,-0.63
2022-11-06T13:10:03.073Z,-0.04
2022-11-06T13:12:39.645Z,-0.32
2022-11-06T13:15:19.966Z,-0.41
2022-11-06T13:18:08.201Z,-0.32
2022-11-06T13:20:54.601Z,-0.39
2022-11-06T13:23:28.160Z,-0.28
2022-11-06T13:25:56.337Z,-0.30
2022-11-06T13:28:50.273Z,-0.46
2022-11-06T13:31:20.721Z,-0.47
2022-11-06T13:33:51.354Z,-0.28
2022-11-06T13:36:20.283Z,-0.62
2022-11-06T13:39:07.279Z,-0.66
2022-11-06T13:41:35.277Z,-0.80
2022-11-06T13:44:03.688Z,-0.31
2022-11-06T13:46:50.319Z,-0.55
2022-11-06T13:49:28.759Z,-0.68
2022-11-06T13:52:01.285Z,-0.63
2022-11-06T13:54:39.248Z,-0.29
2022-11-06T13:57:26.569Z,-0.17
2022-11-06T13:59:54.452Z,-0.54
2022-11-06T14:02:22.962Z,-0.68
2022-11-06T14:04:53.838Z,-0.67
2022-11-06T14:07:25.266Z,-0.86
2022-11-06T14:10:33.634Z,-0.50
2022-11-06T14:13:11.425Z,-0.55
2022-11-06T14:15:43.513Z,-0.81
2022-11-06T14:18:27.056Z,-0.90
2022-11-06T14:21:46.845Z,-0.74
2022-11-06T14:27:39.164Z,-0.73
2022-11-06T14:30:18.293Z,-0.72
2022-11-06T14:32:48.216Z,-0.58
2022-11-06T14:35:34.221Z,-0.88
2022-11-06T14:38:17.673Z,-0.27
2022-11-06T14:40:45.767Z,-0.18
2022-11-06T14:43:22.948Z,-0.54
2022-11-06T14:45:59.288Z,-0.66
2022-11-06T14:48:32.620Z,-0.36
2022-11-06T14:51:01.570Z,-0.39
2022-11-06T14:53:32.265Z,-0.86
2022-11-06T14:56:01.136Z,-0.95
2022-11-06T14:58:47.615Z,-0.92
2022-11-06T15:01:16.300Z,-0.69
2022-11-06T15:03:51.761Z,-0.30
2022-11-06T15:06:19.250Z,-0.34
2022-11-06T15:08:47.337Z,-0.27
2022-11-06T15:11:30.534Z,-0.41
2022-11-06T15:14:06.383Z,-0.46
2022-11-06T15:16:41.063Z,-0.45
2022-11-06T15:19:14.620Z,-0.12
2022-11-06T15:21:51.127Z,-0.36
2022-11-06T15:24:27.560Z,-0.74
2022-11-06T15:27:00.478Z,-0.65
2022-11-06T15:29:38.522Z,-0.44
2022-11-06T15:32:26.212Z,-0.22
2022-11-06T15:34:54.032Z,-0.39
2022-11-06T15:40:47.813Z,-0.23
2022-11-06T15:47:12.255Z,-0.42
2022-11-06T15:49:52.609Z,-0.46
2022-11-06T15:52:35.671Z,-0.74
2022-11-06T15:55:23.393Z,-0.45
2022-11-06T16:00:41.625Z,-0.53
2022-11-06T16:03:12.030Z,-0.33
2022-11-06T16:05:40.024Z,-0.53
2022-11-06T16:08:08.193Z,-0.48
2022-11-06T16:10:37.047Z,-0.59
2022-11-06T16:13:05.756Z,-0.26
2022-11-06T16:15:46.615Z,-0.28
2022-11-06T16:18:21.840Z,-0.80
2022-11-06T16:20:55.637Z,-0.66
2022-11-06T16:23:34.819Z,-0.57
2022-11-06T16:26:11.319Z,-0.47
2022-11-06T16:28:43.546Z,-0.36
2022-11-06T16:31:14.321Z,-0.19
2022-11-06T16:33:53.384Z,-0.02
2022-11-06T16:36:21.173Z,-0.64
2022-11-06T16:38:49.286Z,-0.74
2022-11-06T16:41:36.306Z,-0.86
2022-11-06T16:44:23.566Z,-0.55
2022-11-06T16:47:10.825Z,-0.65
2022-11-06T16:49:42.016Z,-0.75
2022-11-06T16:52:23.545Z,-0.64
2022-11-06T16:54:59.580Z,-0.67
2022-11-06T16:57:33.990Z,-0.55
2022-11-06T17:00:12.206Z,-0.72
2022-11-06T17:02:40.017Z,-0.55
2022-11-06T17:05:09.770Z,-0.08
2022-11-06T17:07:37.690Z,-0.67
2022-11-06T17:10:24.989Z,-0.74
2022-11-06T17:12:53.113Z,-0.85
2022-11-06T17:15:20.677Z,-0.63
2022-11-06T17:17:50.017Z,-0.36
2022-11-06T17:20:19.442Z,-0.59
2022-11-06T17:22:47.060Z,-0.63
2022-11-06T17:25:17.787Z,-0.75
2022-11-06T17:27:45.782Z,-0.66
2022-11-06T17:30:14.975Z,-0.66
2022-11-06T17:32:42.479Z,-0.59
2022-11-06T17:35:10.560Z,-0.72
2022-11-06T17:37:38.196Z,-0.70
2022-11-06T17:40:05.924Z,-0.66
2022-11-06T17:42:33.945Z,-0.43
2022-11-06T17:45:01.572Z,-0.42
2022-11-06T17:47:30.268Z,-0.41
2022-11-06T17:49:59.082Z,-0.24
2022-11-06T17:52:26.732Z,-0.59
2022-11-06T17:54:54.410Z,-0.83
2022-11-06T17:57:24.192Z,-0.72
2022-11-06T18:02:59.760Z,-0.80
2022-11-06T18:05:26.658Z,-0.71
2022-11-06T18:07:54.303Z,-0.35
2022-11-06T18:10:26.068Z,-0.67
2022-11-06T18:12:57.662Z,-0.62
2022-11-06T18:15:25.613Z,-0.73
2022-11-06T18:17:53.272Z,-0.68
2022-11-06T18:20:21.154Z,-0.68
2022-11-06T18:25:34.837Z,-0.81
2022-11-06T18:28:03.781Z,-0.61
2022-11-06T18:30:31.758Z,-0.67
2022-11-06T18:32:59.904Z,-0.48
2022-11-06T18:35:27.441Z,-0.17
2022-11-06T18:37:54.937Z,-0.55
2022-11-06T18:40:22.970Z,-0.78
2022-11-06T18:42:53.154Z,-0.70
2022-11-06T18:45:20.743Z,-0.87
2022-11-06T18:47:48.825Z,-0.94
2022-11-06T18:50:16.487Z,-0.87
2022-11-06T18:52:57.470Z,-0.79
2022-11-06T18:55:27.672Z,-0.88
2022-11-06T18:57:55.915Z,-0.77
2022-11-06T19:00:23.957Z,-0.51
2022-11-06T19:02:55.451Z,-0.69
2022-11-06T19:05:22.969Z,-0.72
2022-11-06T19:07:53.827Z,-0.74
2022-11-06T19:10:24.544Z,-0.76
2022-11-06T19:12:52.305Z,-0.69
2022-11-06T19:15:19.985Z,-0.74
2022-11-06T19:17:47.990Z,-0.69
2022-11-06T19:20:20.754Z,-0.75
2022-11-06T19:22:50.464Z,-0.74
2022-11-06T19:25:19.408Z,-0.59
2022-11-06T19:27:50.119Z,-0.84
2022-11-06T19:30:18.107Z,-0.84
2022-11-06T19:32:45.774Z,-0.66
2022-11-06T19:35:15.562Z,-0.77
2022-11-06T19:37:43.557Z,-0.75
2022-11-06T19:40:11.765Z,-0.77
2022-11-06T19:42:39.938Z,-0.62
2022-11-06T19:45:08.975Z,-0.71
2022-11-06T19:47:37.510Z,-0.55
2022-11-06T19:50:05.301Z,-0.59
2022-11-06T19:52:41.672Z,-0.50
2022-11-06T19:55:26.097Z,-0.27
2022-11-06T19:57:58.357Z,-0.62
2022-11-06T20:00:25.868Z,-0.70
2022-11-06T20:02:56.911Z,-0.73
2022-11-06T20:05:24.541Z,-0.71
2022-11-06T20:07:52.215Z,-0.69
2022-11-06T20:10:20.117Z,-0.53
2022-11-06T20:12:47.800Z,-0.68
2022-11-06T20:15:18.813Z,-0.41
2022-11-06T20:17:51.571Z,-0.47
2022-11-06T20:20:19.236Z,-0.27
2022-11-06T20:22:50.784Z,-0.38
2022-11-06T20:25:19.078Z,-0.27
2022-11-06T20:27:47.168Z,-0.52
2022-11-06T20:30:15.486Z,-0.40
2022-11-06T20:32:44.727Z,-0.41
2022-11-06T20:35:16.752Z,-0.52
2022-11-06T20:37:47.837Z,-0.45
2022-11-06T20:40:15.521Z,-0.23
2022-11-06T20:42:43.065Z,-0.39
2022-11-06T20:45:11.175Z,-0.44
2022-11-06T20:47:41.633Z,-0.25
2022-11-06T20:50:09.445Z,-0.30
2022-11-06T20:52:37.430Z,-0.38
2022-11-06T20:55:05.474Z,-0.41
2022-11-06T20:57:33.131Z,-0.44
2022-11-06T21:00:01.089Z,-0.24
2022-11-06T21:02:30.422Z,-0.41
2022-11-06T21:04:58.128Z,-0.45
2022-11-06T21:07:26.130Z,-0.28
2022-11-06T21:09:53.823Z,-0.04
2022-11-06T21:12:21.324Z,-0.11
2022-11-06T21:14:49.544Z,-0.30
2022-11-06T21:17:17.260Z,-0.15
2022-11-06T21:19:44.907Z,-0.21
2022-11-06T21:22:12.930Z,-0.25
2022-11-06T21:24:41.477Z,-0.38
2022-11-06T21:27:10.048Z,-0.30
2022-11-06T21:29:38.114Z,-0.28
2022-11-06T21:32:05.928Z,-0.07
2022-11-06T21:34:33.608Z,-0.30
2022-11-06T21:37:03.075Z,-0.28
2022-11-06T21:39:36.496Z,-0.25
2022-11-06T21:42:06.007Z,-0.17
2022-11-06T21:44:33.639Z,-0.35
2022-11-06T21:47:01.272Z,-0.24
2022-11-06T21:49:29.362Z,-0.25
2022-11-06T21:52:17.034Z,-0.27
2022-11-06T21:55:03.497Z,0.03
2022-11-06T21:57:31.093Z,0.01
2022-11-06T21:59:59.098Z,-0.22
2022-11-06T22:02:27.070Z,-0.19
2022-11-06T22:04:55.301Z,0.01
2022-11-06T22:07:22.884Z,-0.14
2022-11-06T22:09:52.178Z,-0.05
2022-11-06T22:12:20.605Z,-0.01
2022-11-06T22:14:48.352Z,-0.16
2022-11-06T22:17:19.151Z,-0.26
2022-11-06T22:19:47.296Z,-0.21
2022-11-06T22:22:14.968Z,-0.10
2022-11-06T22:24:42.475Z,-0.10
2022-11-06T22:27:10.410Z,0.23
2022-11-06T22:29:41.222Z,-0.10
2022-11-06T22:32:08.898Z,-0.06
2022-11-06T22:34:36.853Z,0.08
2022-11-06T22:37:04.798Z,0.05
2022-11-06T22:39:32.458Z,0.05
2022-11-06T22:42:00.609Z,0.10
2022-11-06T22:44:28.375Z,-0.02
2022-11-06T22:46:56.024Z,-0.06
2022-11-06T22:49:24.068Z,-0.07
2022-11-06T22:51:51.992Z,-0.11
2022-11-06T22:54:22.457Z,-0.02
2022-11-06T22:56:50.441Z,-0.07
2022-11-06T22:59:18.076Z,-0.08
2022-11-06T23:01:45.734Z,0.07
2022-11-06T23:04:17.393Z,0.10
2022-11-06T23:06:45.702Z,0.02
2022-11-06T23:09:13.464Z,0.08
2022-11-06T23:11:41.410Z,0.26
2022-11-06T23:14:09.642Z,0.13
2022-11-06T23:16:56.061Z,0.14
2022-11-06T23:19:24.486Z,0.11
2022-11-06T23:21:52.825Z,0.17
2022-11-06T23:24:20.525Z,0.17
2022-11-06T23:26:48.623Z,0.17
2022-11-06T23:29:16.003Z,0.22
2022-11-06T23:31:43.726Z,0.22
2022-11-06T23:34:11.700Z,0.17
2022-11-06T23:36:39.437Z,0.28
2022-11-06T23:39:07.083Z,0.28
2022-11-06T23:41:47.427Z,0.31
2022-11-06T23:44:34.568Z,0.34
2022-11-06T23:47:02.873Z,0.36
2022-11-06T23:49:30.541Z,0.38
2022-11-06T23:51:58.271Z,0.35
2022-11-06T23:54:26.204Z,0.41
2022-11-06T23:56:53.979Z,0.43
2022-11-06T23:59:21.680Z,0.38
